Time;durP1;ratioP1;P1;durP2;ratioP2;P2;SDS_P1;SDS_P2;PMS_P1;PMS_P2;Temp;Humidity;BMP_temperature;BMP_pressure;BME280_temperature;BME280_humidity;BME280_pressure;Samples;Min_cycle;Max_cycle;Signal;HPM_P1;HPM_P2
2021/06/05 00:01:37;;;;;;;23.37;17.20;;;15.60;88.00;;;;;;5052117;28;20597;-88
2021/06/05 00:04:03;;;;;;;26.90;16.95;;;15.60;88.00;;;;;;5053531;28;20156;-88
2021/06/05 00:06:29;;;;;;;25.80;16.53;;;15.70;88.00;;;;;;5051831;28;20226;-88
2021/06/05 00:08:56;;;;;;;25.00;15.50;;;15.80;87.70;;;;;;5051998;28;20175;-88
2021/06/05 00:11:25;;;;;;;21.08;15.88;;;15.80;87.40;;;;;;5051908;28;20215;-88
2021/06/05 00:13:56;;;;;;;20.85;17.30;;;15.70;87.40;;;;;;5052022;28;20263;-88
2021/06/05 00:16:26;;;;;;;33.28;17.55;;;15.70;87.70;;;;;;5052647;28;20211;-88
2021/06/05 00:18:52;;;;;;;24.67;17.15;;;15.70;87.70;;;;;;5051896;28;20160;-88
2021/06/05 00:21:21;;;;;;;23.50;15.88;;;15.70;87.80;;;;;;5051888;28;20318;-88
2021/06/05 00:23:46;;;;;;;20.10;16.80;;;15.50;88.00;;;;;;5051793;28;20714;-88
2021/06/05 00:26:12;;;;;;;23.40;17.00;;;15.50;88.10;;;;;;5052986;28;20231;-85
2021/06/05 00:28:38;;;;;;;19.10;15.70;;;15.40;88.30;;;;;;5051916;28;20183;-85
2021/06/05 00:31:04;;;;;;;18.60;16.67;;;15.40;88.30;;;;;;5053086;28;20179;-85
2021/06/05 00:33:31;;;;;;;19.27;16.83;;;15.30;88.50;;;;;;5052046;28;20195;-85
2021/06/05 00:35:57;;;;;;;24.20;17.17;;;15.40;88.50;;;;;;5055776;28;20233;-85
2021/06/05 00:38:23;;;;;;;20.65;18.05;;;15.40;88.60;;;;;;5055946;28;20203;-86
2021/06/05 00:40:54;;;;;;;18.73;16.67;;;15.40;88.40;;;;;;5055742;28;20643;-85
2021/06/05 00:43:23;;;;;;;17.52;15.43;;;15.50;88.30;;;;;;5057336;28;20609;-85
2021/06/05 00:45:49;;;;;;;23.95;15.95;;;15.40;88.20;;;;;;5055781;28;20176;-86
2021/06/05 00:48:17;;;;;;;18.40;16.30;;;15.40;88.10;;;;;;5060850;28;20182;-86
2021/06/05 00:50:44;;;;;;;27.80;17.90;;;15.30;88.30;;;;;;5058466;28;20270;-86
2021/06/05 00:53:11;;;;;;;19.50;16.57;;;15.30;88.30;;;;;;5055636;28;20179;-87
2021/06/05 00:55:42;;;;;;;25.43;16.77;;;15.20;88.50;;;;;;5055414;28;20168;-87
2021/06/05 00:58:08;;;;;;;21.90;17.03;;;15.20;88.60;;;;;;5055407;28;20165;-88
2021/06/05 01:00:46;;;;;;;18.80;16.77;;;15.10;88.80;;;;;;5055602;28;20683;-88
2021/06/05 01:03:13;;;;;;;22.47;17.23;;;15.20;88.90;;;;;;5056858;28;20639;-88
2021/06/05 01:05:40;;;;;;;20.47;16.33;;;15.20;88.80;;;;;;5056735;28;20631;-88
2021/06/05 01:08:36;;;;;;;18.77;15.93;;;15.20;88.70;;;;;;5055241;28;20184;-88
2021/06/05 01:11:14;;;;;;;20.10;16.27;;;15.00;88.70;;;;;;5055305;28;20259;-88
2021/06/05 01:14:02;;;;;;;22.20;18.20;;;15.00;89.20;;;;;;5055020;28;20642;-88
2021/06/05 01:16:29;;;;;;;19.73;17.60;;;14.90;89.40;;;;;;5056197;28;20257;-88
2021/06/05 01:19:10;;;;;;;26.80;16.83;;;14.90;89.40;;;;;;5055003;28;20522;-88
2021/06/05 01:22:03;;;;;;;24.43;17.53;;;14.80;89.30;;;;;;5055084;28;20175;-87
2021/06/05 01:24:38;;;;;;;28.70;17.00;;;14.80;89.50;;;;;;5054971;28;20516;-88
2021/06/05 01:27:13;;;;;;;20.60;16.27;;;14.90;89.40;;;;;;5054712;28;20248;-88
2021/06/05 01:29:43;;;;;;;22.33;17.13;;;14.80;89.30;;;;;;5055644;28;20174;-88
2021/06/05 01:32:12;;;;;;;20.80;18.00;;;14.80;89.40;;;;;;5056269;28;20195;-88
2021/06/05 01:34:44;;;;;;;29.73;18.00;;;14.80;89.60;;;;;;5054587;28;20186;-88
2021/06/05 01:37:12;;;;;;;21.70;17.93;;;14.60;89.90;;;;;;5054631;28;20236;-88
2021/06/05 01:39:39;;;;;;;33.17;19.07;;;14.50;90.20;;;;;;5055962;28;20176;-88
2021/06/05 01:42:10;;;;;;;26.00;19.43;;;14.50;90.40;;;;;;5055862;28;20226;-88
2021/06/05 01:44:38;;;;;;;23.03;19.30;;;14.60;90.50;;;;;;5055686;28;20163;-88
2021/06/05 01:47:04;;;;;;;32.23;19.23;;;14.60;90.30;;;;;;5054493;28;20231;-88
2021/06/05 01:49:30;;;;;;;34.00;18.90;;;14.50;90.30;;;;;;5054381;28;20187;-88
2021/06/05 01:52:03;;;;;;;20.27;17.17;;;14.50;90.20;;;;;;5055626;28;20176;-88
2021/06/05 01:54:57;;;;;;;25.00;18.27;;;14.50;90.10;;;;;;5055504;28;20247;-88
2021/06/05 01:57:29;;;;;;;24.07;18.13;;;14.60;90.10;;;;;;5055503;28;20188;-88
2021/06/05 01:59:55;;;;;;;28.13;17.63;;;14.50;90.10;;;;;;5055725;28;20163;-88
2021/06/05 02:02:21;;;;;;;22.40;17.50;;;14.50;90.10;;;;;;5055338;28;20180;-89
2021/06/05 02:04:47;;;;;;;30.67;18.00;;;14.50;90.10;;;;;;5054080;28;20183;-88
2021/06/05 02:07:14;;;;;;;28.30;17.90;;;14.40;90.20;;;;;;5055065;28;20277;-88
2021/06/05 02:09:40;;;;;;;29.27;18.07;;;14.30;90.20;;;;;;5054060;28;20183;-88
2021/06/05 02:12:15;;;;;;;36.83;18.07;;;14.20;90.40;;;;;;5054025;28;20176;-88
2021/06/05 02:14:50;;;;;;;37.47;18.83;;;14.20;90.50;;;;;;5055212;28;20179;-88
2021/06/05 02:17:20;;;;;;;24.47;18.10;;;14.20;90.40;;;;;;5055052;28;20188;-87
2021/06/05 02:19:52;;;;;;;34.50;17.73;;;14.10;90.50;;;;;;5053808;28;20168;-88
2021/06/05 02:22:22;;;;;;;28.27;18.57;;;14.20;90.50;;;;;;5054026;28;20165;-88
2021/06/05 02:24:50;;;;;;;32.33;19.10;;;14.20;90.60;;;;;;5053668;28;20164;-88
2021/06/05 02:27:20;;;;;;;28.87;18.80;;;14.20;90.70;;;;;;5053579;28;20204;-88
2021/06/05 02:29:47;;;;;;;23.23;18.77;;;14.30;90.70;;;;;;5054834;28;20176;-88
2021/06/05 02:32:15;;;;;;;26.93;19.27;;;14.30;90.60;;;;;;5053508;28;20644;-88
2021/06/05 02:34:42;;;;;;;26.53;18.57;;;14.40;90.60;;;;;;5054905;28;20259;-88
2021/06/05 02:37:10;;;;;;;21.83;18.13;;;14.50;90.40;;;;;;5054759;28;20192;-88
2021/06/05 02:39:39;;;;;;;35.30;18.53;;;14.50;90.30;;;;;;5054782;28;20207;-88
2021/06/05 02:42:10;;;;;;;40.37;18.90;;;14.50;90.40;;;;;;5053453;28;20172;-88
2021/06/05 02:44:36;;;;;;;26.53;19.70;;;14.40;90.30;;;;;;5054632;28;20183;-88
2021/06/05 02:47:08;;;;;;;26.00;18.87;;;14.40;90.50;;;;;;5053344;28;20200;-88
2021/06/05 02:49:35;;;;;;;26.63;17.80;;;14.50;90.50;;;;;;5053362;28;20160;-88
2021/06/05 02:52:32;;;;;;;26.73;18.47;;;14.40;90.50;;;;;;5054456;28;20579;-88
2021/06/05 02:55:03;;;;;;;29.57;18.70;;;14.40;90.70;;;;;;5053146;28;20221;-87
2021/06/05 02:57:30;;;;;;;25.17;18.87;;;14.40;90.80;;;;;;5053398;28;20202;-88
2021/06/05 02:59:56;;;;;;;27.97;18.47;;;14.40;90.90;;;;;;5054383;28;20635;-88
2021/06/05 03:02:21;;;;;;;25.63;19.37;;;14.40;90.80;;;;;;5053005;28;20565;-88
2021/06/05 03:04:47;;;;;;;31.50;20.13;;;14.50;90.90;;;;;;5054331;28;20168;-88
2021/06/05 03:07:14;;;;;;;26.47;19.13;;;14.60;90.80;;;;;;5052814;28;20306;-88
2021/06/05 03:09:39;;;;;;;26.53;18.53;;;14.60;90.80;;;;;;5052972;28;20711;-88
2021/06/05 03:12:07;;;;;;;26.00;19.13;;;14.60;90.70;;;;;;5054193;28;20196;-87
2021/06/05 03:14:34;;;;;;;27.00;20.20;;;14.50;90.80;;;;;;5054088;28;20167;-88
2021/06/05 03:17:00;;;;;;;27.97;18.67;;;14.60;90.80;;;;;;5052754;28;20196;-88
2021/06/05 03:19:26;;;;;;;31.03;18.83;;;14.60;90.70;;;;;;5052637;28;20203;-88
2021/06/05 03:21:52;;;;;;;25.43;18.07;;;14.60;90.50;;;;;;5052836;28;20188;-88
2021/06/05 03:24:18;;;;;;;20.77;16.67;;;14.60;90.40;;;;;;5053925;28;20172;-88
2021/06/05 03:26:43;;;;;;;24.63;17.17;;;14.50;90.40;;;;;;5053821;28;20203;-88
2021/06/05 03:29:09;;;;;;;21.10;17.00;;;14.40;90.60;;;;;;5052561;28;20179;-88
2021/06/05 03:31:35;;;;;;;27.53;18.67;;;14.40;90.90;;;;;;5052582;28;20168;-87
2021/06/05 03:34:01;;;;;;;23.37;18.60;;;14.40;90.90;;;;;;5052520;28;20199;-88
2021/06/05 03:36:27;;;;;;;27.97;18.77;;;14.60;90.90;;;;;;5053835;28;20231;-88
2021/06/05 03:38:52;;;;;;;37.27;20.23;;;14.60;90.80;;;;;;5053717;28;20196;-88
2021/06/05 03:41:18;;;;;;;22.30;18.33;;;14.60;90.60;;;;;;5052347;28;20612;-88
2021/06/05 03:43:44;;;;;;;24.60;18.10;;;14.70;90.50;;;;;;5053654;28;20176;-88
2021/06/05 03:46:10;;;;;;;25.80;18.83;;;14.70;90.40;;;;;;5053713;28;20250;-87
2021/06/05 03:48:37;;;;;;;25.63;17.83;;;14.70;90.30;;;;;;5052259;28;20259;-88
2021/06/05 03:51:06;;;;;;;22.13;16.43;;;14.70;90.30;;;;;;5052330;28;20172;-88
2021/06/05 03:53:32;;;;;;;26.43;15.90;;;14.70;90.20;;;;;;5052151;28;20271;-88
2021/06/05 03:55:58;;;;;;;16.67;14.03;;;14.80;90.20;;;;;;5053289;28;20317;-87
2021/06/05 03:58:30;;;;;;;19.53;14.80;;;14.80;90.20;;;;;;5053406;28;20172;-88
2021/06/05 04:00:56;;;;;;;19.77;15.43;;;14.90;90.00;;;;;;5053314;28;20164;-88
2021/06/05 04:03:22;;;;;;;17.40;15.60;;;15.00;90.00;;;;;;5052297;28;20183;-88
2021/06/05 04:05:48;;;;;;;18.87;16.00;;;15.20;89.80;;;;;;5053292;28;20168;-88
2021/06/05 04:08:13;;;;;;;25.80;15.80;;;15.30;89.70;;;;;;5052086;28;20182;-87
2021/06/05 04:10:39;;;;;;;19.10;16.00;;;15.30;89.70;;;;;;5052796;28;20255;-88
2021/06/05 04:13:05;;;;;;;24.43;16.17;;;15.50;89.80;;;;;;5051951;28;20179;-88
2021/06/05 04:15:33;;;;;;;23.43;15.87;;;15.60;89.70;;;;;;5051955;28;20187;-88
2021/06/05 04:18:10;;;;;;;18.77;16.20;;;15.80;89.30;;;;;;5053139;28;20188;-88
2021/06/05 04:20:39;;;;;;;18.40;15.63;;;15.90;89.00;;;;;;5051933;28;20546;-88
2021/06/05 04:23:06;;;;;;;22.53;14.53;;;16.00;88.60;;;;;;5053183;28;20195;-87
2021/06/05 04:25:32;;;;;;;15.50;13.40;;;16.00;88.10;;;;;;5051996;28;20205;-88
2021/06/05 04:27:58;;;;;;;16.50;12.83;;;16.20;87.20;;;;;;5051737;28;20203;-88
2021/06/05 04:30:28;;;;;;;21.42;14.60;;;16.30;87.10;;;;;;5051829;28;20202;-88
2021/06/05 04:32:53;;;;;;;17.35;13.65;;;16.30;86.90;;;;;;5051801;28;20168;-88
2021/06/05 04:35:20;;;;;;;13.88;11.38;;;16.40;87.00;;;;;;5051825;28;20650;-88
2021/06/05 04:37:46;;;;;;;13.75;12.15;;;16.50;86.10;;;;;;5053031;28;20278;-88
2021/06/05 04:40:13;;;;;;;14.50;11.52;;;16.60;86.00;;;;;;5051731;28;20223;-88
2021/06/05 04:42:39;;;;;;;17.23;12.32;;;16.70;85.10;;;;;;5053193;28;20640;-88
2021/06/05 04:45:06;;;;;;;19.13;12.88;;;16.70;85.50;;;;;;5051706;28;20172;-88
2021/06/05 04:47:32;;;;;;;12.35;11.25;;;16.80;85.60;;;;;;5051596;28;20584;-88
2021/06/05 04:49:58;;;;;;;15.60;10.82;;;16.80;84.60;;;;;;5052942;28;20178;-88
2021/06/05 04:52:24;;;;;;;13.45;11.38;;;16.90;85.10;;;;;;5051740;28;20268;-88
2021/06/05 04:54:50;;;;;;;12.73;11.02;;;17.00;85.10;;;;;;5051680;28;20259;-87
2021/06/05 04:57:16;;;;;;;13.13;10.45;;;17.00;84.30;;;;;;5051546;28;20192;-88
2021/06/05 04:59:41;;;;;;;12.73;11.10;;;17.00;84.40;;;;;;5051740;28;20179;-88
2021/06/05 05:02:07;;;;;;;12.88;11.18;;;17.10;84.00;;;;;;5052746;28;20169;-87
2021/06/05 05:04:33;;;;;;;13.18;10.38;;;17.10;84.50;;;;;;5051529;28;20179;-88
2021/06/05 05:06:58;;;;;;;15.70;10.43;;;17.10;84.60;;;;;;5052660;28;20579;-88
2021/06/05 05:09:24;;;;;;;14.45;10.60;;;17.00;84.40;;;;;;5052663;28;20168;-88
2021/06/05 05:11:50;;;;;;;13.40;10.32;;;17.00;84.40;;;;;;5052713;28;20254;-88
2021/06/05 05:14:16;;;;;;;12.60;9.98;;;17.00;84.60;;;;;;5052550;28;20287;-88
2021/06/05 05:16:42;;;;;;;14.20;10.70;;;16.90;84.90;;;;;;5051463;28;20236;-88
2021/06/05 05:19:08;;;;;;;20.27;13.68;;;16.80;85.20;;;;;;5051397;28;20176;-88
2021/06/05 05:21:34;;;;;;;15.57;12.13;;;16.80;85.40;;;;;;5053306;28;20179;-88
2021/06/05 05:24:00;;;;;;;16.35;11.70;;;16.70;85.40;;;;;;5054954;28;20207;-88
2021/06/05 05:26:26;;;;;;;18.95;12.10;;;16.70;85.20;;;;;;5055893;28;20284;-87
2021/06/05 05:28:54;;;;;;;12.63;10.50;;;16.70;85.60;;;;;;5054884;28;20654;-87
2021/06/05 05:31:22;;;;;;;11.98;10.25;;;16.70;85.40;;;;;;5056149;28;20168;-88
2021/06/05 05:33:48;;;;;;;18.75;10.85;;;16.70;85.80;;;;;;5056102;28;20167;-87
2021/06/05 05:36:22;;;;;;;15.75;12.02;;;16.80;85.40;;;;;;5054737;28;20278;-87
2021/06/05 05:38:48;;;;;;;13.52;10.65;;;16.80;85.00;;;;;;5055026;28;20168;-88
2021/06/05 05:41:15;;;;;;;14.45;10.93;;;16.80;85.10;;;;;;5055320;28;20198;-88
2021/06/05 05:43:41;;;;;;;12.73;10.60;;;16.90;84.40;;;;;;5054607;28;20241;-88
2021/06/05 05:46:07;;;;;;;13.73;10.63;;;16.90;84.20;;;;;;5055541;28;20191;-87
2021/06/05 05:48:35;;;;;;;11.00;9.55;;;17.00;84.30;;;;;;5055830;28;20190;-88
2021/06/05 05:51:01;;;;;;;13.85;10.27;;;17.00;83.90;;;;;;5054619;28;20651;-88
2021/06/05 05:53:28;;;;;;;12.23;10.65;;;17.10;84.30;;;;;;5054418;28;20226;-88
2021/06/05 05:55:53;;;;;;;14.38;10.98;;;17.10;84.40;;;;;;5055675;28;20172;-88
2021/06/05 05:58:21;;;;;;;11.73;10.52;;;17.10;84.60;;;;;;5055561;28;20687;-88
2021/06/05 06:00:48;;;;;;;19.27;11.70;;;17.20;84.60;;;;;;5055508;28;20199;-88
2021/06/05 06:03:15;;;;;;;19.75;10.30;;;17.20;84.70;;;;;;5055606;28;20178;-88
2021/06/05 06:05:41;;;;;;;12.45;9.55;;;17.20;85.10;;;;;;5054141;28;20209;-87
2021/06/05 06:08:10;;;;;;;13.00;9.50;;;17.50;84.40;;;;;;5055456;28;20212;-87
2021/06/05 06:10:37;;;;;;;13.65;9.82;;;17.70;83.70;;;;;;5055428;28;20247;-85
2021/06/05 06:13:03;;;;;;;11.82;9.52;;;18.00;83.30;;;;;;5053946;28;20172;-85
2021/06/05 06:15:29;;;;;;;12.75;9.38;;;18.20;83.00;;;;;;5055157;28;20176;-85
2021/06/05 06:17:56;;;;;;;12.10;9.77;;;18.40;82.10;;;;;;5055456;28;20184;-85
2021/06/05 06:20:34;;;;;;;12.80;9.20;;;18.50;81.70;;;;;;5053836;28;20258;-85
2021/06/05 06:23:00;;;;;;;9.50;8.60;;;18.70;81.00;;;;;;5055163;28;20160;-86
2021/06/05 06:25:30;;;;;;;10.23;9.00;;;18.80;80.20;;;;;;5055316;28;20621;-85
2021/06/05 06:27:57;;;;;;;11.55;8.68;;;18.90;80.50;;;;;;5054816;28;20230;-85
2021/06/05 06:30:26;;;;;;;11.07;8.68;;;19.10;80.30;;;;;;5054354;28;20168;-85
2021/06/05 06:32:52;;;;;;;10.15;8.68;;;19.30;79.50;;;;;;5054501;28;20581;-85
2021/06/05 06:35:29;;;;;;;10.50;8.80;;;19.50;78.90;;;;;;5054756;28;20213;-85
2021/06/05 06:37:56;;;;;;;9.88;7.43;;;19.70;78.00;;;;;;5055045;28;20203;-85
2021/06/05 06:40:30;;;;;;;12.13;8.18;;;19.70;76.30;;;;;;5053488;28;20184;-85
2021/06/05 06:42:57;;;;;;;10.48;7.55;;;19.90;78.10;;;;;;5053757;28;20183;-85
2021/06/05 06:45:23;;;;;;;11.48;7.68;;;20.00;76.40;;;;;;5053500;28;20207;-85
2021/06/05 06:47:50;;;;;;;8.80;7.35;;;20.20;76.10;;;;;;5053337;28;20199;-85
2021/06/05 06:50:18;;;;;;;8.90;7.53;;;20.30;75.10;;;;;;5055118;28;20170;-85
2021/06/05 06:52:43;;;;;;;8.38;7.57;;;20.40;76.20;;;;;;5055056;28;20527;-86
2021/06/05 06:55:10;;;;;;;7.68;6.85;;;20.50;73.50;;;;;;5059540;28;20175;-85
2021/06/05 06:57:36;;;;;;;12.18;6.97;;;20.50;72.90;;;;;;5054869;28;20192;-85
2021/06/05 07:00:07;;;;;;;10.80;7.35;;;20.60;73.40;;;;;;5054464;28;20180;-85
2021/06/05 07:02:33;;;;;;;8.73;6.75;;;20.70;73.50;;;;;;5054417;28;20202;-86
2021/06/05 07:04:58;;;;;;;8.07;6.40;;;20.80;74.00;;;;;;5053022;28;20176;-85
2021/06/05 07:07:24;;;;;;;10.02;6.97;;;20.90;73.00;;;;;;5052620;28;20265;-85
2021/06/05 07:09:50;;;;;;;12.05;7.18;;;20.90;72.80;;;;;;5052946;28;20271;-85
2021/06/05 07:12:15;;;;;;;10.25;6.35;;;21.10;73.20;;;;;;5052865;28;20206;-86
2021/06/05 07:14:41;;;;;;;14.15;7.10;;;21.20;72.80;;;;;;5054224;28;20211;-85
2021/06/05 07:17:07;;;;;;;7.13;6.20;;;21.20;71.80;;;;;;5052789;28;20200;-85
2021/06/05 07:19:33;;;;;;;8.15;6.85;;;21.20;71.30;;;;;;5052668;28;20198;-86
2021/06/05 07:22:01;;;;;;;10.07;6.88;;;21.40;73.00;;;;;;5052759;28;20640;-85
2021/06/05 07:24:28;;;;;;;7.70;6.53;;;21.50;71.10;;;;;;5057153;28;20178;-86
2021/06/05 07:26:53;;;;;;;6.75;6.07;;;21.50;71.90;;;;;;5055006;28;20543;-85
2021/06/05 07:29:19;;;;;;;8.65;6.13;;;21.60;69.70;;;;;;5053081;28;20263;-85
2021/06/05 07:31:50;;;;;;;9.52;6.10;;;21.70;67.50;;;;;;5054105;28;20251;-86
2021/06/05 07:34:23;;;;;;;7.40;6.40;;;21.70;66.60;;;;;;5054214;28;20157;-86
2021/06/05 07:36:52;;;;;;;11.32;6.15;;;21.70;67.80;;;;;;5052581;28;20250;-85
2021/06/05 07:39:21;;;;;;;10.68;5.85;;;21.90;67.30;;;;;;5053817;28;20585;-85
2021/06/05 07:41:47;;;;;;;7.18;5.47;;;22.00;68.70;;;;;;5052674;28;20194;-85
2021/06/05 07:44:14;;;;;;;7.40;5.78;;;22.20;67.50;;;;;;5053272;28;20172;-85
2021/06/05 07:46:42;;;;;;;8.88;5.45;;;22.30;68.20;;;;;;5052576;28;20200;-85
2021/06/05 07:49:07;;;;;;;7.38;6.35;;;22.30;68.90;;;;;;5053527;28;20175;-86
2021/06/05 07:51:33;;;;;;;7.32;5.35;;;22.50;68.80;;;;;;5053492;28;20172;-85
2021/06/05 07:53:59;;;;;;;6.15;5.32;;;22.60;65.20;;;;;;5053692;28;20176;-85
2021/06/05 07:56:25;;;;;;;6.43;5.15;;;22.70;65.40;;;;;;5053720;28;20192;-85
2021/06/05 07:58:50;;;;;;;5.75;4.95;;;22.70;64.20;;;;;;5053494;28;20172;-85
2021/06/05 08:01:16;;;;;;;6.00;4.78;;;22.90;65.20;;;;;;5053600;28;20176;-85
2021/06/05 08:03:42;;;;;;;6.70;4.40;;;23.00;63.60;;;;;;5053315;28;20651;-86
2021/06/05 08:06:08;;;;;;;5.95;4.43;;;23.00;61.60;;;;;;5053712;28;20555;-85
2021/06/05 08:08:33;;;;;;;8.77;5.43;;;23.20;62.70;;;;;;5052074;28;20198;-85
2021/06/05 08:10:59;;;;;;;5.55;4.97;;;23.30;62.90;;;;;;5053429;28;20671;-85
2021/06/05 08:13:25;;;;;;;10.27;4.50;;;23.40;62.10;;;;;;5053522;28;20172;-85
2021/06/05 08:15:51;;;;;;;8.90;3.95;;;23.50;58.20;;;;;;5053259;28;20170;-85
2021/06/05 08:18:19;;;;;;;6.93;4.53;;;23.50;60.20;;;;;;5052117;28;20237;-85
2021/06/05 08:20:49;;;;;;;8.70;4.35;;;23.60;57.20;;;;;;5053182;28;20186;-85
2021/06/05 08:23:15;;;;;;;4.10;3.80;;;23.70;57.90;;;;;;5052651;28;20216;-85
2021/06/05 08:25:41;;;;;;;4.90;4.15;;;23.70;57.30;;;;;;5052003;28;20229;-86
2021/06/05 08:28:08;;;;;;;9.00;4.60;;;23.90;58.10;;;;;;5053222;28;20223;-86
2021/06/05 08:30:46;;;;;;;4.93;4.32;;;24.10;60.40;;;;;;5053008;28;20652;-86
2021/06/05 08:33:13;;;;;;;8.43;3.85;;;24.20;59.40;;;;;;5051894;28;20230;-86
2021/06/05 08:35:40;;;;;;;5.00;4.18;;;24.30;57.60;;;;;;5052875;28;20176;-86
2021/06/05 08:38:07;;;;;;;9.38;3.75;;;24.20;55.60;;;;;;5052903;28;20183;-86
2021/06/05 08:41:05;;;;;;;4.00;3.67;;;24.10;54.20;;;;;;5051716;28;20174;-85
2021/06/05 08:43:42;;;;;;;5.95;3.88;;;24.20;53.80;;;;;;5021502;28;20213;-86
2021/06/05 08:46:11;;;;;;;4.57;4.18;;;24.20;56.70;;;;;;5052751;28;20275;-85
2021/06/05 08:48:37;;;;;;;5.85;3.53;;;24.20;55.10;;;;;;5052751;28;20251;-86
2021/06/05 08:51:33;;;;;;;4.25;3.63;;;24.20;55.50;;;;;;5052805;28;20251;-86
2021/06/05 08:54:16;;;;;;;4.55;3.55;;;24.30;55.50;;;;;;5051702;28;20613;-86
2021/06/05 08:56:41;;;;;;;7.57;3.72;;;24.40;56.50;;;;;;5053606;28;20229;-86
2021/06/05 08:59:09;;;;;;;4.28;3.47;;;24.50;55.60;;;;;;5056484;28;20602;-86
2021/06/05 09:01:44;;;;;;;4.70;3.60;;;24.50;55.40;;;;;;5056606;28;20632;-86
2021/06/05 09:04:14;;;;;;;6.07;3.42;;;24.50;54.90;;;;;;5056685;28;20160;-86
2021/06/05 09:06:52;;;;;;;3.50;3.20;;;24.60;56.30;;;;;;5145203;22;21000;-85
2021/06/05 09:09:23;;;;;;;6.55;3.28;;;24.50;52.60;;;;;;5056242;28;20171;-85
2021/06/05 09:11:49;;;;;;;4.78;3.42;;;24.50;52.50;;;;;;5055016;28;20609;-85
2021/06/05 09:14:15;;;;;;;5.68;3.50;;;24.50;53.10;;;;;;5056474;28;20535;-85
2021/06/05 09:16:50;;;;;;;4.50;3.20;;;24.50;53.10;;;;;;5054734;28;20192;-85
2021/06/05 09:19:30;;;;;;;4.22;3.17;;;24.70;53.30;;;;;;5056159;28;20155;-85
2021/06/05 09:22:06;;;;;;;11.15;3.45;;;24.90;53.10;;;;;;5056016;28;20144;-85
2021/06/05 09:24:52;;;;;;;5.45;3.10;;;25.10;50.40;;;;;;5054534;28;20160;-85
2021/06/05 09:27:17;;;;;;;3.20;2.90;;;25.20;52.30;;;;;;5054567;28;20215;-85
2021/06/05 09:29:50;;;;;;;3.53;3.20;;;25.20;49.60;;;;;;5054592;28;20176;-85
2021/06/05 09:32:28;;;;;;;6.20;3.40;;;25.00;50.00;;;;;;5056006;28;20148;-85
2021/06/05 09:34:57;;;;;;;4.55;3.17;;;25.00;52.50;;;;;;5056116;28;20160;-85
2021/06/05 09:37:33;;;;;;;4.07;3.20;;;25.00;51.50;;;;;;5054471;28;20200;-85
2021/06/05 09:40:06;;;;;;;6.22;3.40;;;24.90;53.40;;;;;;5055790;28;20251;-85
2021/06/05 09:42:42;;;;;;;7.15;3.03;;;25.00;54.30;;;;;;5055825;28;20186;-85
2021/06/05 09:45:48;;;;;;;3.40;3.00;;;25.10;51.80;;;;;;5054505;28;20176;-85
2021/06/05 09:48:28;;;;;;;5.55;3.30;;;25.30;51.20;;;;;;5010061;28;20239;-85
2021/06/05 09:50:57;;;;;;;3.72;2.83;;;25.60;50.60;;;;;;5054410;28;20168;-85
2021/06/05 09:53:29;;;;;;;4.82;2.92;;;25.80;48.00;;;;;;5055667;28;20171;-85
2021/06/05 09:55:55;;;;;;;4.10;3.00;;;25.80;50.10;;;;;;5055840;28;20210;-85
2021/06/05 09:58:39;;;;;;;6.57;3.30;;;26.00;48.10;;;;;;5055406;28;20195;-85
2021/06/05 10:01:16;;;;;;;4.63;2.78;;;25.90;47.10;;;;;;5054186;28;20183;-85
2021/06/05 10:03:42;;;;;;;3.47;2.80;;;26.20;47.70;;;;;;5055720;28;20201;-85
2021/06/05 10:06:35;;;;;;;3.10;2.80;;;26.20;46.80;;;;;;5055833;28;20171;-84
2021/06/05 10:09:17;;;;;;;3.90;3.10;;;26.40;47.70;;;;;;5048368;28;20199;-85
2021/06/05 10:11:44;;;;;;;4.03;3.13;;;26.40;44.60;;;;;;5053941;28;20168;-85
2021/06/05 10:14:14;;;;;;;4.32;3.17;;;26.50;45.10;;;;;;5054048;28;20226;-85
2021/06/05 10:16:44;;;;;;;8.23;3.58;;;26.50;45.80;;;;;;5053932;28;20282;-85
2021/06/05 10:19:26;;;;;;;3.53;2.83;;;26.60;47.20;;;;;;5053812;28;20176;-85
2021/06/05 10:21:53;;;;;;;5.65;3.30;;;26.60;46.20;;;;;;5053942;28;20226;-85
2021/06/05 10:24:54;;;;;;;5.07;3.13;;;26.60;46.30;;;;;;5054106;28;20187;-85
2021/06/05 10:27:25;;;;;;;5.40;2.90;;;26.70;46.20;;;;;;5054903;28;20278;-85
2021/06/05 10:30:20;;;;;;;3.90;2.58;;;26.50;42.70;;;;;;5053663;28;20163;-85
2021/06/05 10:32:46;;;;;;;3.53;2.50;;;26.10;43.60;;;;;;5053775;28;20563;-85
2021/06/05 10:35:39;;;;;;;4.43;3.13;;;25.80;47.50;;;;;;5055351;28;20164;-85
2021/06/05 10:38:25;;;;;;;4.07;2.95;;;25.70;49.40;;;;;;5054787;28;20276;-85
2021/06/05 10:40:51;;;;;;;4.50;2.83;;;25.50;49.00;;;;;;5053388;28;20647;-86
2021/06/05 10:43:17;;;;;;;3.15;2.88;;;25.40;50.30;;;;;;5053423;28;20552;-85
2021/06/05 10:45:48;;;;;;;5.50;2.83;;;25.30;50.40;;;;;;5053353;28;20176;-86
2021/06/05 10:48:39;;;;;;;7.90;3.03;;;25.40;51.40;;;;;;5053224;28;20212;-85
2021/06/05 10:51:20;;;;;;;4.03;3.15;;;25.60;51.20;;;;;;5053217;28;20195;-85
2021/06/05 10:53:57;;;;;;;4.25;3.45;;;25.70;51.80;;;;;;5053163;28;20176;-85
2021/06/05 10:56:32;;;;;;;6.53;3.55;;;25.50;51.80;;;;;;5054450;28;20155;-86
2021/06/05 10:59:00;;;;;;;6.68;3.97;;;25.10;54.50;;;;;;5053167;28;20668;-85
2021/06/05 11:01:31;;;;;;;6.03;3.78;;;25.00;54.40;;;;;;5053058;28;20182;-85
2021/06/05 11:04:00;;;;;;;4.28;3.70;;;25.00;54.90;;;;;;5052920;28;20168;-85
2021/06/05 11:06:59;;;;;;;7.85;3.97;;;25.00;57.40;;;;;;5052567;28;20289;-85
2021/06/05 11:09:31;;;;;;;7.53;4.00;;;25.00;57.40;;;;;;5054026;28;20175;-85
2021/06/05 11:12:26;;;;;;;6.18;4.05;;;25.10;54.80;;;;;;5054369;28;20148;-85
2021/06/05 11:14:55;;;;;;;7.22;3.88;;;25.20;55.90;;;;;;5053970;28;20176;-85
2021/06/05 11:17:35;;;;;;;4.97;3.75;;;25.40;53.50;;;;;;5052705;28;20223;-85
2021/06/05 11:20:07;;;;;;;5.22;3.85;;;25.40;52.50;;;;;;5054153;28;20156;-85
2021/06/05 11:22:51;;;;;;;8.60;3.95;;;25.50;54.00;;;;;;5053846;28;20540;-85
2021/06/05 11:25:16;;;;;;;6.07;4.10;;;25.40;49.70;;;;;;5052442;28;20199;-86
2021/06/05 11:27:42;;;;;;;5.18;3.80;;;25.50;51.80;;;;;;5052319;28;20699;-85
2021/06/05 11:30:23;;;;;;;8.65;4.20;;;25.50;51.90;;;;;;5052493;28;20175;-85
2021/06/05 11:32:56;;;;;;;4.65;3.65;;;25.50;53.60;;;;;;5053598;28;20164;-85
2021/06/05 11:35:44;;;;;;;7.97;3.63;;;25.70;49.50;;;;;;5052421;28;20247;-85
2021/06/05 11:38:33;;;;;;;3.90;3.50;;;25.70;51.10;;;;;;5053581;28;20215;-85
2021/06/05 11:41:08;;;;;;;3.80;3.50;;;26.10;52.30;;;;;;5052110;28;20179;-85
2021/06/05 11:43:34;;;;;;;6.38;3.65;;;26.30;47.90;;;;;;5053471;28;20168;-85
2021/06/05 11:46:10;;;;;;;5.55;3.72;;;26.20;49.40;;;;;;5052137;28;20221;-86
2021/06/05 11:48:50;;;;;;;4.82;3.72;;;26.50;47.30;;;;;;5052234;28;20646;-85
2021/06/05 11:51:27;;;;;;;9.02;3.63;;;26.70;50.30;;;;;;5035535;28;20223;-86
2021/06/05 11:54:15;;;;;;;4.40;3.75;;;27.00;50.50;;;;;;5052753;28;20589;-85
2021/06/05 11:56:58;;;;;;;7.60;3.33;;;27.30;49.50;;;;;;5053508;28;20188;-85
2021/06/05 11:59:38;;;;;;;3.42;3.13;;;27.50;49.30;;;;;;5053361;28;20624;-85
2021/06/05 12:02:11;;;;;;;3.90;3.30;;;27.80;46.90;;;;;;5053381;28;20164;-86
2021/06/05 12:04:46;;;;;;;4.75;3.30;;;27.50;46.60;;;;;;5052186;28;20175;-86
2021/06/05 12:07:30;;;;;;;5.00;3.85;;;27.80;47.70;;;;;;5053210;28;20305;-85
2021/06/05 12:09:58;;;;;;;5.57;3.70;;;28.20;45.30;;;;;;5051998;28;20252;-86
2021/06/05 12:12:31;;;;;;;6.45;3.97;;;28.20;44.10;;;;;;5053419;28;20632;-86
2021/06/05 12:15:19;;;;;;;7.05;3.72;;;28.10;45.50;;;;;;5052033;28;20175;-86
2021/06/05 12:18:01;;;;;;;4.18;3.67;;;28.00;46.90;;;;;;5051842;28;20282;-86
2021/06/05 12:20:36;;;;;;;4.63;3.30;;;28.10;46.70;;;;;;5053083;28;20165;-86
2021/06/05 12:23:39;;;;;;;5.10;3.03;;;27.80;45.30;;;;;;5051816;28;20171;-85
2021/06/05 12:26:12;;;;;;;7.47;3.10;;;27.90;46.10;;;;;;5022029;28;20725;-86
2021/06/05 12:28:41;;;;;;;3.97;3.63;;;27.80;47.30;;;;;;5052051;28;20706;-86
2021/06/05 12:31:27;;;;;;;5.45;3.15;;;27.80;48.40;;;;;;5054370;28;20171;-86
2021/06/05 12:34:02;;;;;;;5.15;3.58;;;27.90;47.50;;;;;;5057064;28;20655;-86
2021/06/05 12:36:34;;;;;;;6.25;3.63;;;27.90;47.20;;;;;;5057211;28;20516;-86
2021/06/05 12:39:34;;;;;;;4.38;3.67;;;28.00;49.00;;;;;;5056916;28;20168;-86
2021/06/05 12:42:00;;;;;;;3.35;3.05;;;28.10;47.50;;;;;;5055728;28;20172;-86
2021/06/05 12:44:31;;;;;;;4.22;3.33;;;28.00;49.00;;;;;;5057115;28;20179;-85
2021/06/05 12:46:58;;;;;;;3.80;3.28;;;28.00;46.10;;;;;;5055467;28;20212;-86
2021/06/05 12:49:28;;;;;;;4.82;3.03;;;28.00;46.60;;;;;;5056857;28;20175;-86
2021/06/05 12:52:00;;;;;;;7.28;3.30;;;28.10;47.50;;;;;;5055465;28;20206;-86
2021/06/05 12:54:30;;;;;;;3.55;3.22;;;28.10;48.70;;;;;;5055461;28;20183;-86